Alaska, Minnesota
Current Conditions -  °F | °C
As of 6:13 AM on Friday 21 Nov 2014 (Local Time) from KBJI Reporting Station
Broken Clouds Broken Clouds  
Wind Chill: -4°   Ceiling: 8000
Heat Index: 12°   Visibility: 10mi
Dew Point:   Wind: 14mph
Humidity: 74%   Direction: 170°S
Pressure: 29.94"   Gusts: 18mph
Location:  47.7369°N, 94.9947°W
Report Text: KBJI 211213Z AUTO 17012G16KT 10SM BKN080 BKN120 M11/M15 A2994 RMK AO2 T11121150
Loading
Personal Weather Stations






























Interactive Weather Map New forecast layout! Learn more

10-Day Weather Forecast

Advertisements
Track Severe Weather on mobile